createdAt,value
2022-09-22T00:00:14.002Z,71.01660156
2022-09-22T00:02:15.919Z,71.29394531
2022-09-22T00:03:24.440Z,71.17871094
2022-09-22T00:04:26.383Z,71.27734375
2022-09-22T00:05:28.868Z,71.34277344
2022-09-22T00:06:54.838Z,71.3203125
2022-09-22T00:07:42.555Z,71.64941406
2022-09-22T00:08:40.706Z,71.21582031
2022-09-22T00:09:40.756Z,71.484375
2022-09-22T00:10:36.976Z,71.23925781
2022-09-22T00:11:39.112Z,71.31835938
2022-09-22T00:12:34.531Z,71.359375
2022-09-22T00:13:34.539Z,71.24316406
2022-09-22T00:14:30.970Z,71.5234375
2022-09-22T00:15:42.178Z,71.83789063
2022-09-22T00:15:49.360Z,71.79394531
2022-09-22T00:16:59.524Z,71.39160156
2022-09-22T00:17:55.796Z,71.52539063
2022-09-22T00:18:56.321Z,71.55761719
2022-09-22T00:19:52.493Z,71.07324219
2022-09-22T00:22:00.536Z,71.52734375
2022-09-22T00:22:53.736Z,71.6796875
2022-09-22T00:23:53.439Z,71.51171875
2022-09-22T00:24:52.467Z,71.93652344
2022-09-22T00:26:51.118Z,71.81347656
2022-09-22T00:27:55.299Z,71.72167969
2022-09-22T00:28:49.574Z,71.88671875
2022-09-22T00:29:52.248Z,72.07910156
2022-09-22T00:30:47.373Z,71.74707031
2022-09-22T00:31:50.160Z,71.90234375
2022-09-22T00:32:42.610Z,71.76855469
2022-09-22T00:33:39.840Z,71.921875
2022-09-22T00:34:42.345Z,72.08691406
2022-09-22T00:35:43.145Z,71.7890625
2022-09-22T00:37:41.726Z,72.06152344
2022-09-22T00:38:40.382Z,71.90332031
2022-09-22T00:39:39.207Z,71.52441406
2022-09-22T00:40:34.105Z,71.79785156
2022-09-22T00:41:47.369Z,71.8671875
2022-09-22T00:42:41.645Z,71.85449219
2022-09-22T00:43:40.467Z,71.63867188
2022-09-22T00:44:39.300Z,71.72753906
2022-09-22T00:46:26.618Z,71.23925781
2022-09-22T00:47:06.460Z,71.23242188
2022-09-22T00:48:05.451Z,71.31542969
2022-09-22T00:49:04.167Z,71.27832031
2022-09-22T00:50:02.091Z,71.2421875
2022-09-22T00:51:56.361Z,71.29492188
2022-09-22T00:52:56.193Z,70.98632813
2022-09-22T00:53:54.282Z,71.47558594
2022-09-22T00:54:55.103Z,71.6953125
2022-09-22T00:55:52.429Z,71.59667969
2022-09-22T00:56:52.240Z,71.25878906
2022-09-22T00:57:53.863Z,71.3203125
2022-09-22T00:58:56.379Z,71.609375
2022-09-22T00:59:49.114Z,71.73925781
2022-09-22T01:01:55.537Z,71.58398438
2022-09-22T01:02:49.907Z,71.75
2022-09-22T01:03:49.518Z,71.69042969
2022-09-22T01:04:46.288Z,71.79296875
2022-09-22T01:05:46.802Z,71.38085938
2022-09-22T01:06:51.634Z,71.45703125
2022-09-22T01:07:55.306Z,71.37207031
2022-09-22T01:08:53.895Z,71.35839844
2022-09-22T01:09:48.008Z,71.31152344
2022-09-22T01:10:48.951Z,71.42578125
2022-09-22T01:11:49.134Z,71.63378906
2022-09-22T01:12:45.364Z,71.69824219
2022-09-22T01:13:44.198Z,71.48242188
2022-09-22T01:14:38.546Z,71.63769531
2022-09-22T01:15:42.044Z,71.85253906
2022-09-22T01:16:41.651Z,71.52539063
2022-09-22T01:17:36.566Z,71.68066406
2022-09-22T01:18:41.221Z,71.8671875
2022-09-22T01:19:33.742Z,71.75195313
2022-09-22T01:20:38.131Z,71.64453125
2022-09-22T01:21:30.971Z,71.30664063
2022-09-22T01:22:34.103Z,71.65234375
2022-09-22T01:23:28.485Z,71.68652344
2022-09-22T01:24:32.493Z,71.70898438
2022-09-22T01:25:30.539Z,71.6171875
2022-09-22T01:26:32.452Z,71.71875
2022-09-22T01:27:28.757Z,72.16210938
2022-09-22T01:28:30.542Z,72.01855469
2022-09-22T01:29:26.075Z,71.91015625
2022-09-22T01:30:30.281Z,71.87695313
2022-09-22T01:32:24.271Z,71.8671875
2022-09-22T01:33:19.696Z,72.04394531
2022-09-22T01:34:22.934Z,72.02734375
2022-09-22T01:35:21.908Z,71.98144531
2022-09-22T01:36:24.124Z,72.20410156
2022-09-22T01:37:17.056Z,72.03417969
2022-09-22T01:38:19.786Z,71.87304688
2022-09-22T01:39:19.176Z,72.26269531
2022-09-22T01:40:23.187Z,72.00292969
2022-09-22T01:42:21.209Z,72.30664063
2022-09-22T01:44:08.461Z,72.25
2022-09-22T01:44:47.838Z,71.95507813
2022-09-22T01:45:46.162Z,71.85058594
2022-09-22T01:46:46.168Z,71.91503906
2022-09-22T01:47:41.634Z,72.1796875
2022-09-22T01:48:41.472Z,72.35253906
2022-09-22T01:49:36.767Z,72.51660156
2022-09-22T01:50:37.936Z,72.22460938
2022-09-22T01:52:32.725Z,72.421875
2022-09-22T01:53:34.836Z,72.87792969
2022-09-22T01:54:38.508Z,72.96484375
2022-09-22T01:56:47.144Z,72.58300781
2022-09-22T01:57:41.737Z,73.01757813
2022-09-22T01:58:43.007Z,72.765625
2022-09-22T01:59:38.451Z,72.72265625
2022-09-22T02:00:39.707Z,72.61816406
2022-09-22T02:02:38.364Z,72.58300781
2022-09-22T02:03:30.863Z,72.58300781
2022-09-22T02:04:34.305Z,72.59472656
2022-09-22T02:05:29.581Z,72.3515625
2022-09-22T02:06:30.913Z,72.61230469
2022-09-22T02:07:29.079Z,72.47167969
2022-09-22T02:08:27.321Z,72.44921875
2022-09-22T02:09:25.933Z,72.51660156
2022-09-22T02:10:31.070Z,72.31347656
2022-09-22T02:11:25.368Z,71.96777344
2022-09-22T02:12:27.340Z,71.90820313
2022-09-22T02:13:21.672Z,71.97558594
2022-09-22T02:14:21.156Z,72.01855469
2022-09-22T02:15:20.376Z,72.07226563
2022-09-22T02:18:01.999Z,71.765625
2022-09-22T02:18:46.112Z,71.77050781
2022-09-22T02:19:46.176Z,71.37988281
2022-09-22T02:21:53.084Z,71.51074219
2022-09-22T02:22:54.687Z,70.70800781
2022-09-22T02:24:02.403Z,71.41796875
2022-09-22T02:25:04.166Z,71.66015625
2022-09-22T02:27:07.414Z,71.63574219
2022-09-22T02:28:05.529Z,71.69726563
2022-09-22T02:29:07.313Z,71.74023438
2022-09-22T02:30:06.313Z,71.48925781
2022-09-22T02:31:19.929Z,71.39160156
2022-09-22T02:31:20.684Z,71.39160156
2022-09-22T02:32:12.082Z,71.47070313
2022-09-22T02:33:08.687Z,71.17382813
2022-09-22T02:34:10.473Z,71.1640625
2022-09-22T02:35:07.579Z,71.46484375
2022-09-22T02:37:06.030Z,71.41699219
2022-09-22T02:38:11.237Z,71.61621094
2022-09-22T02:39:09.304Z,71.47558594
2022-09-22T02:40:07.727Z,71.89941406
2022-09-22T02:42:07.026Z,71.8984375
2022-09-22T02:43:11.643Z,71.91601563
2022-09-22T02:44:13.491Z,72.02636719
2022-09-22T02:45:16.054Z,72.03515625
2022-09-22T02:47:11.221Z,71.796875
2022-09-22T02:48:14.994Z,72.01757813
2022-09-22T02:49:09.240Z,71.94921875
2022-09-22T02:50:13.774Z,71.70117188
2022-09-22T02:52:16.370Z,71.96972656
2022-09-22T02:53:20.307Z,72.24511719
2022-09-22T02:54:20.820Z,72.18457031
2022-09-22T02:55:22.896Z,71.92773438
2022-09-22T02:57:18.530Z,72.44042969
2022-09-22T02:58:19.273Z,72.06542969
2022-09-22T02:59:43.319Z,72.28808594
2022-09-22T03:00:26.345Z,72.05859375
2022-09-22T03:02:37.474Z,71.82617188
2022-09-22T03:03:33.942Z,72.11621094
2022-09-22T03:04:34.896Z,72.34472656
2022-09-22T03:05:30.485Z,72.15527344
2022-09-22T03:07:31.749Z,72.140625
2022-09-22T03:08:32.432Z,72.37304688
2022-09-22T03:09:28.823Z,72.74023438
2022-09-22T03:10:33.379Z,72.49121094
2022-09-22T03:12:28.282Z,72.52539063
2022-09-22T03:13:23.763Z,72.30078125
2022-09-22T03:14:25.483Z,72.1875
2022-09-22T03:15:23.828Z,72.47558594
2022-09-22T03:15:27.242Z,72.47558594
2022-09-22T03:16:24.656Z,72.51367188
2022-09-22T03:17:20.826Z,72.28222656
2022-09-22T03:18:20.460Z,72.46875
2022-09-22T03:19:15.822Z,72.14160156
2022-09-22T03:20:19.000Z,72.12890625
2022-09-22T03:22:22.057Z,72.64746094
2022-09-22T03:23:17.642Z,72.765625
2022-09-22T03:24:15.910Z,72.94433594
2022-09-22T03:25:18.816Z,72.57421875
2022-09-22T03:27:21.907Z,72.50585938
2022-09-22T03:28:14.938Z,72.85253906
2022-09-22T03:29:19.453Z,72.67285156
2022-09-22T03:30:18.911Z,72.671875
2022-09-22T03:32:13.820Z,73.265625
2022-09-22T03:33:57.345Z,72.51757813
2022-09-22T03:34:37.272Z,72.53613281
2022-09-22T03:35:35.426Z,72.01953125
2022-09-22T03:36:35.156Z,72.3671875
2022-09-22T03:37:33.855Z,72.29296875
2022-09-22T03:38:32.902Z,72.16699219
2022-09-22T03:39:29.591Z,72.79980469
2022-09-22T03:40:28.945Z,72.62011719
2022-09-22T03:41:24.329Z,72.72167969
2022-09-22T03:42:23.472Z,72.74121094
2022-09-22T03:43:19.624Z,72.87109375
2022-09-22T03:44:18.073Z,72.53222656
2022-09-22T03:45:26.960Z,72.79882813
2022-09-22T03:47:29.006Z,73.12011719
2022-09-22T03:48:32.096Z,73.30957031
2022-09-22T03:49:27.405Z,73.37597656
2022-09-22T03:50:30.749Z,72.92871094
2022-09-22T03:51:23.691Z,73.15722656
2022-09-22T03:52:25.413Z,72.88867188
2022-09-22T03:53:18.697Z,72.92382813
2022-09-22T03:54:21.129Z,73.32910156
2022-09-22T03:55:21.386Z,72.97167969
2022-09-22T03:57:17.146Z,72.68554688
2022-09-22T03:58:17.078Z,72.54003906
2022-09-22T03:59:16.290Z,72.515625
2022-09-22T04:00:10.596Z,72.625
2022-09-22T04:02:15.255Z,72.76367188
2022-09-22T04:03:18.021Z,72.93164063
2022-09-22T04:04:13.362Z,72.65039063
2022-09-22T04:05:16.179Z,72.73046875
2022-09-22T04:06:08.179Z,72.76660156
2022-09-22T04:07:13.276Z,72.75585938
2022-09-22T04:08:05.763Z,72.50585938
2022-09-22T04:09:02.619Z,72.24902344
2022-09-22T04:10:06.611Z,72.42382813
2022-09-22T04:12:03.013Z,72.57910156
2022-09-22T04:12:55.982Z,72.30078125
2022-09-22T04:14:40.353Z,72.03125
2022-09-22T04:15:22.049Z,71.96484375
2022-09-22T04:16:19.616Z,72.01660156
2022-09-22T04:17:21.571Z,72.11523438
2022-09-22T04:18:17.136Z,71.91992188
2022-09-22T04:19:16.179Z,71.89453125
2022-09-22T04:20:10.702Z,71.85546875
2022-09-22T04:22:05.686Z,71.86328125
2022-09-22T04:23:11.794Z,72.07128906
2022-09-22T04:24:07.030Z,72.39160156
2022-09-22T04:25:07.469Z,72.17578125
2022-09-22T04:27:18.974Z,72.56738281
2022-09-22T04:27:19.671Z,72.56738281
2022-09-22T04:27:19.897Z,72.56738281
2022-09-22T04:28:05.407Z,72.18847656
2022-09-22T04:28:58.551Z,72.33203125
2022-09-22T04:29:58.872Z,72.03222656
2022-09-22T04:30:54.393Z,71.94628906
2022-09-22T04:31:55.289Z,71.83984375
2022-09-22T04:32:50.545Z,72.23730469
2022-09-22T04:33:52.321Z,72.44921875
2022-09-22T04:34:44.556Z,72.37988281
2022-09-22T04:35:43.895Z,72.45019531
2022-09-22T04:37:39.677Z,72.43164063
2022-09-22T04:38:42.536Z,72.6875
2022-09-22T04:39:34.976Z,72.36328125
2022-09-22T04:40:43.687Z,72.55664063
2022-09-22T04:42:39.256Z,72.50878906
2022-09-22T04:43:37.779Z,72.59472656
2022-09-22T04:44:41.859Z,72.42578125
2022-09-22T04:45:39.890Z,72.6171875
2022-09-22T04:46:40.543Z,72.30566406
2022-09-22T04:47:42.477Z,72.48144531
2022-09-22T04:48:40.963Z,72.54394531
2022-09-22T04:49:44.249Z,72.76367188
2022-09-22T04:51:49.969Z,72.59863281
2022-09-22T04:52:46.639Z,72.88964844
2022-09-22T04:54:32.175Z,72.13964844
2022-09-22T04:55:33.491Z,71.88476563
2022-09-22T04:56:34.794Z,71.77636719
2022-09-22T04:57:35.288Z,71.85058594
2022-09-22T04:58:37.327Z,72.29394531
2022-09-22T05:00:23.498Z,72.00878906
2022-09-22T05:01:06.632Z,72.10839844
2022-09-22T05:02:06.249Z,71.80664063
2022-09-22T05:03:10.034Z,71.61230469
2022-09-22T05:04:10.393Z,71.90917969
2022-09-22T05:05:07.701Z,71.91503906
2022-09-22T05:06:08.667Z,71.79003906
2022-09-22T05:07:13.757Z,71.91699219
2022-09-22T05:08:20.279Z,72.234375
2022-09-22T05:09:26.355Z,71.953125
2022-09-22T05:10:24.274Z,71.91113281
2022-09-22T05:12:27.389Z,71.99121094
2022-09-22T05:13:28.352Z,71.85351563
2022-09-22T05:14:26.522Z,71.75292969
2022-09-22T05:15:28.336Z,71.80566406
2022-09-22T05:17:31.135Z,71.99609375
2022-09-22T05:18:30.943Z,71.8828125
2022-09-22T05:19:33.941Z,71.91210938
2022-09-22T05:20:30.333Z,71.97949219
2022-09-22T05:22:36.333Z,71.796875
2022-09-22T05:22:39.968Z,71.796875
2022-09-22T05:23:34.026Z,71.99804688
2022-09-22T05:24:36.357Z,72.02050781
2022-09-22T05:25:40.980Z,72.06835938
2022-09-22T05:26:37.581Z,72.04492188
2022-09-22T05:27:41.776Z,71.99804688
2022-09-22T05:28:35.471Z,71.80566406
2022-09-22T05:29:35.161Z,71.9609375
2022-09-22T05:30:36.920Z,71.9140625
2022-09-22T05:31:38.397Z,72.03613281
2022-09-22T05:32:34.800Z,72.19921875
2022-09-22T05:33:42.314Z,72.21679688
2022-09-22T05:34:39.041Z,72.05175781
2022-09-22T05:35:40.735Z,72.37792969
2022-09-22T05:37:37.998Z,72.26171875
2022-09-22T05:38:40.915Z,72.38476563
2022-09-22T05:39:38.027Z,72.68652344
2022-09-22T05:40:44.689Z,72.59960938
2022-09-22T05:42:42.099Z,72.92578125
2022-09-22T05:43:45.380Z,72.54589844
2022-09-22T05:44:40.202Z,72.63476563
2022-09-22T05:46:16.639Z,72.0703125
2022-09-22T05:47:14.897Z,71.81347656
2022-09-22T05:48:15.364Z,71.69238281
2022-09-22T05:49:16.348Z,72.09179688
2022-09-22T05:52:30.182Z,71.58691406
2022-09-22T05:54:06.249Z,71.05957031
2022-09-22T05:55:06.616Z,70.70117188
2022-09-22T05:56:04.859Z,70.61425781
2022-09-22T05:57:06.068Z,70.69726563
2022-09-22T05:58:07.607Z,71.08691406
2022-09-22T05:59:11.148Z,71.26953125
2022-09-22T06:02:31.361Z,71.11035156
2022-09-22T06:03:25.711Z,70.96289063
2022-09-22T06:04:28.405Z,70.81640625
2022-09-22T06:05:29.343Z,71.13574219
2022-09-22T06:06:30.260Z,71.34472656
2022-09-22T06:08:12.877Z,71.61816406
2022-09-22T06:09:09.469Z,71.17578125
2022-09-22T06:10:12.654Z,71.25
2022-09-22T06:11:09.115Z,71.53808594
2022-09-22T06:12:47.253Z,71.60253906
2022-09-22T06:14:23.090Z,71.55175781
2022-09-22T06:17:37.697Z,70.53515625
2022-09-22T06:19:17.792Z,70.64746094
2022-09-22T06:22:28.052Z,70.11035156
2022-09-22T06:24:08.192Z,70.23339844
2022-09-22T06:25:03.603Z,69.80761719
2022-09-22T06:26:05.238Z,70.26269531
2022-09-22T06:27:43.912Z,70.78125
2022-09-22T06:29:21.342Z,70.46386719
2022-09-22T06:32:36.288Z,70.50683594
2022-09-22T06:34:11.982Z,70.38378906
2022-09-22T06:37:31.309Z,70.0390625
2022-09-22T06:39:11.579Z,69.99023438
2022-09-22T06:40:15.357Z,69.91992188
2022-09-22T06:40:17.633Z,69.91992188
2022-09-22T06:42:53.694Z,70.30859375
2022-09-22T06:43:54.830Z,70.77246094
2022-09-22T06:45:40.544Z,70.87402344
2022-09-22T06:47:26.904Z,71.32714844
2022-09-22T06:48:24.653Z,71.62207031
2022-09-22T06:49:24.948Z,71.89648438
2022-09-22T06:50:20.928Z,71.921875
2022-09-22T06:51:21.759Z,72.58300781
2022-09-22T06:52:18.167Z,72.79394531
2022-09-22T06:53:24.335Z,72.73339844
2022-09-22T06:54:17.820Z,73.07910156
2022-09-22T06:55:20.087Z,73.23339844
2022-09-22T06:57:10.497Z,73.27832031
2022-09-22T06:58:10.703Z,73.46582031
2022-09-22T06:59:10.329Z,73.828125
2022-09-22T07:00:07.246Z,73.9296875
2022-09-22T07:02:04.161Z,74.34765625
2022-09-22T07:03:00.461Z,74.25
2022-09-22T07:04:02.982Z,74.10449219
2022-09-22T07:04:55.722Z,74.63085938
2022-09-22T07:05:55.901Z,74.39648438
2022-09-22T07:06:52.150Z,74.70898438
2022-09-22T07:07:49.779Z,74.67675781
2022-09-22T07:08:52.708Z,74.62890625
2022-09-22T07:09:48.572Z,74.72851563
2022-09-22T07:11:44.723Z,74.921875
2022-09-22T07:12:46.906Z,75.21289063
2022-09-22T07:14:19.520Z,74.67382813
2022-09-22T07:16:42.285Z,73.04589844
2022-09-22T07:17:21.084Z,72.61035156
2022-09-22T07:18:18.229Z,72.18359375
2022-09-22T07:19:16.880Z,72.61425781
2022-09-22T07:20:11.522Z,72.89648438
2022-09-22T07:21:10.359Z,72.95507813
2022-09-22T07:22:04.521Z,73.28320313
2022-09-22T07:23:04.757Z,73.25195313
2022-09-22T07:23:58.450Z,73.92285156
2022-09-22T07:24:57.086Z,74.15234375
2022-09-22T07:26:48.346Z,74.39453125
2022-09-22T07:27:46.672Z,74.359375
2022-09-22T07:28:40.839Z,74.73925781
2022-09-22T07:29:36.692Z,74.26464844
2022-09-22T07:30:34.478Z,74.5546875
2022-09-22T07:32:25.878Z,75.25488281
2022-09-22T07:33:23.827Z,75.00683594
2022-09-22T07:34:17.991Z,75.44726563
2022-09-22T07:35:19.128Z,75.34277344
2022-09-22T07:37:08.882Z,75.56835938
2022-09-22T07:38:04.931Z,75.36816406
2022-09-22T07:39:03.321Z,75.390625
2022-09-22T07:39:57.203Z,75.30371094
2022-09-22T07:40:58.344Z,75.32617188
2022-09-22T07:41:50.581Z,75.33300781
2022-09-22T07:42:51.163Z,75.72851563
2022-09-22T07:43:47.730Z,75.58691406
2022-09-22T07:44:44.488Z,75.55175781
2022-09-22T07:45:36.247Z,75.22558594
2022-09-22T07:46:34.864Z,74.90625
2022-09-22T07:47:29.333Z,75.72851563
2022-09-22T07:48:27.618Z,75.10253906
2022-09-22T07:49:22.665Z,75.5625
2022-09-22T07:50:18.296Z,75.10546875
2022-09-22T07:52:53.986Z,75.45117188
2022-09-22T07:53:33.674Z,75.57421875
2022-09-22T07:54:31.600Z,75.875
2022-09-22T07:55:28.778Z,75.03613281
2022-09-22T07:56:28.655Z,75.33300781
2022-09-22T07:57:23.820Z,75.34765625
2022-09-22T07:58:26.062Z,75.62792969
2022-09-22T07:59:18.662Z,74.89941406
2022-09-22T08:00:18.597Z,74.13378906
2022-09-22T08:02:13.839Z,73.93164063
2022-09-22T08:03:09.173Z,74.31933594
2022-09-22T08:04:09.288Z,74.28417969
2022-09-22T08:05:05.517Z,74.13671875
2022-09-22T08:06:06.394Z,74.53320313
2022-09-22T08:07:02.610Z,73.54882813
2022-09-22T08:08:03.408Z,73.14648438
2022-09-22T08:08:59.239Z,73.8203125
2022-09-22T08:10:00.167Z,73.13574219
2022-09-22T08:10:56.565Z,73.93847656
2022-09-22T08:11:56.763Z,73.8671875
2022-09-22T08:12:54.705Z,73.22265625
2022-09-22T08:13:54.711Z,73.22851563
2022-09-22T08:14:51.001Z,73.21484375
2022-09-22T08:16:47.538Z,73.17480469
2022-09-22T08:17:47.936Z,72.93457031
2022-09-22T08:18:49.999Z,72.16015625
2022-09-22T08:19:44.439Z,71.98925781
2022-09-22T08:20:46.243Z,71.75488281
2022-09-22T08:21:48.885Z,70.85742188
2022-09-22T08:21:49.673Z,70.85742188
2022-09-22T08:22:46.012Z,71.02246094
2022-09-22T08:23:43.293Z,70.59960938
2022-09-22T08:24:48.151Z,70.79394531
2022-09-22T08:25:42.935Z,70.62207031
2022-09-22T08:26:48.311Z,70.32421875
2022-09-22T08:27:42.969Z,69.88671875
2022-09-22T08:28:47.531Z,69.87597656
2022-09-22T08:29:42.910Z,70.3828125
2022-09-22T08:30:47.068Z,70.0625
2022-09-22T08:32:25.237Z,70.328125
2022-09-22T08:33:05.910Z,70.17480469
2022-09-22T08:34:04.661Z,69.97265625
2022-09-22T08:35:05.513Z,69.94628906
2022-09-22T08:36:01.453Z,70.46582031
2022-09-22T08:37:02.482Z,70.48925781
2022-09-22T08:37:58.795Z,70.60644531
2022-09-22T08:38:57.391Z,70.34179688
2022-09-22T08:39:56.314Z,70.15234375
2022-09-22T08:40:56.294Z,70.14453125
2022-09-22T08:41:52.695Z,70.04101563
2022-09-22T08:42:53.415Z,69.71972656
2022-09-22T08:43:49.749Z,69.80761719
2022-09-22T08:44:50.792Z,69.01171875
2022-09-22T08:45:47.061Z,68.96972656
2022-09-22T08:46:48.123Z,68.07226563
2022-09-22T08:47:44.240Z,67.73730469
2022-09-22T08:48:47.612Z,67.06542969
2022-09-22T08:49:41.858Z,67.07910156
2022-09-22T08:50:42.234Z,67.36523438
2022-09-22T08:51:38.372Z,67.06542969
2022-09-22T08:52:39.487Z,67.23046875
2022-09-22T08:53:35.825Z,67.62402344
2022-09-22T08:54:39.652Z,67.59863281
2022-09-22T08:55:33.477Z,67.67382813
2022-09-22T08:56:34.907Z,67.37597656
2022-09-22T08:57:31.486Z,67.04394531
2022-09-22T08:58:33.115Z,66.27539063
2022-09-22T08:59:29.781Z,66.16894531
2022-09-22T09:00:33.983Z,66.39257813
2022-09-22T09:02:30.066Z,65.5234375
2022-09-22T09:03:27.288Z,63.0234375
2022-09-22T09:04:28.727Z,64.24511719
2022-09-22T09:06:07.739Z,64.07324219
2022-09-22T09:06:49.110Z,62.52929688
2022-09-22T09:07:48.617Z,61.24121094
2022-09-22T09:08:50.665Z,60.12109375
2022-09-22T09:09:48.019Z,59.39550781
2022-09-22T09:10:49.621Z,60.52539063
2022-09-22T09:11:47.053Z,60.42871094
2022-09-22T09:12:49.212Z,58.55761719
2022-09-22T09:13:46.357Z,58.29980469
2022-09-22T09:14:48.403Z,57.45019531
2022-09-22T09:15:46.376Z,58.12402344
2022-09-22T09:16:47.580Z,57.98242188
2022-09-22T09:17:45.687Z,58.1484375
2022-09-22T09:18:47.022Z,58.43066406
2022-09-22T09:19:44.246Z,57.50097656
2022-09-22T09:20:48.669Z,58.3203125
2022-09-22T09:21:43.867Z,57.54980469
2022-09-22T09:22:48.438Z,57.56738281
2022-09-22T09:25:43.513Z,56.25195313
2022-09-22T09:26:45.634Z,54.9140625
2022-09-22T09:27:48.250Z,54.9296875
2022-09-22T09:28:43.469Z,55.52832031
2022-09-22T09:29:45.547Z,55.88671875
2022-09-22T09:30:43.027Z,56.50292969
2022-09-22T09:32:43.591Z,56.18164063
2022-09-22T09:33:45.655Z,56.47460938
2022-09-22T09:34:44.784Z,54.8671875
2022-09-22T09:35:48.668Z,56.11816406
2022-09-22T09:36:46.382Z,54.19238281
2022-09-22T09:37:45.374Z,54.08300781
2022-09-22T09:38:47.358Z,53.80566406
2022-09-22T09:39:46.520Z,53.40332031
2022-09-22T09:40:47.999Z,53.41796875
2022-09-22T09:41:47.014Z,53.1484375
2022-09-22T09:42:48.903Z,53.23730469
2022-09-22T09:43:47.838Z,53.91015625
2022-09-22T09:44:50.247Z,53.89453125
2022-09-22T09:45:48.913Z,54.078125
2022-09-22T09:47:49.984Z,52.50976563
2022-09-22T09:48:51.734Z,51.91796875
2022-09-22T09:49:52.749Z,52.33789063
2022-09-22T09:50:52.118Z,52.52539063
2022-09-22T09:51:57.573Z,51.77246094
2022-09-22T09:53:41.030Z,52.74414063
2022-09-22T09:54:19.314Z,51.47167969
2022-09-22T09:55:26.779Z,52.25292969
2022-09-22T09:55:27.025Z,52.25292969
2022-09-22T09:57:17.930Z,51.66992188
2022-09-22T09:58:19.484Z,52.27734375
2022-09-22T09:59:15.990Z,51.97753906
2022-09-22T10:00:17.393Z,52.57226563
2022-09-22T10:02:15.122Z,51.62402344
2022-09-22T10:03:11.531Z,52.39550781
2022-09-22T10:04:13.035Z,51.234375
2022-09-22T10:05:09.498Z,51.30175781
2022-09-22T10:06:13.509Z,50.65527344
2022-09-22T10:07:07.417Z,50.81738281
2022-09-22T10:08:11.443Z,50.09570313
2022-09-22T10:09:05.801Z,49.67285156
2022-09-22T10:10:06.604Z,49.12792969
2022-09-22T10:12:04.265Z,49.95507813
2022-09-22T10:13:04.240Z,50.84277344
2022-09-22T10:14:00.589Z,50.98828125
2022-09-22T10:15:01.735Z,50.21972656
2022-09-22T10:17:01.536Z,52.57910156
2022-09-22T10:17:55.194Z,52.80761719
2022-09-22T10:18:58.790Z,50.07714844
2022-09-22T10:19:52.887Z,49.36328125
2022-09-22T10:20:56.475Z,50.46386719
2022-09-22T10:21:50.096Z,50.83300781
2022-09-22T10:22:53.592Z,51.30566406
2022-09-22T10:23:48.477Z,50.51269531
2022-09-22T10:24:48.184Z,50.02246094
2022-09-22T10:25:44.121Z,50.94238281
2022-09-22T10:26:47.573Z,50.5546875
2022-09-22T10:27:41.539Z,50.40625
2022-09-22T10:28:44.662Z,48.82910156
2022-09-22T10:29:37.915Z,50.18359375
2022-09-22T10:30:39.012Z,50.46875
2022-09-22T10:33:13.642Z,50.30664063
2022-09-22T10:33:54.358Z,49.70117188
2022-09-22T10:34:53.757Z,49.70410156
2022-09-22T10:35:54.661Z,50.27148438
2022-09-22T10:36:50.990Z,50.91015625
2022-09-22T10:37:51.521Z,49.41992188
2022-09-22T10:38:47.733Z,50.28710938
2022-09-22T10:39:48.227Z,49.40136719
2022-09-22T10:40:44.571Z,50.62304688
2022-09-22T10:41:44.818Z,50.78027344
2022-09-22T10:42:40.814Z,50.9296875
2022-09-22T10:43:41.528Z,50.05859375
2022-09-22T10:44:40.122Z,50.06933594
2022-09-22T10:45:38.543Z,51.18945313
2022-09-22T10:46:34.911Z,51.07519531
2022-09-22T10:47:35.312Z,49.97558594
2022-09-22T10:48:31.670Z,50.55957031
2022-09-22T10:49:31.983Z,49.86035156
2022-09-22T10:50:28.433Z,50.54882813
2022-09-22T10:51:26.021Z,49.80175781
2022-09-22T10:52:26.644Z,49.74316406
2022-09-22T10:53:22.613Z,51.484375
2022-09-22T10:54:25.514Z,50.37109375
2022-09-22T10:55:18.903Z,50.75
2022-09-22T10:56:21.877Z,50.94140625
2022-09-22T10:57:15.195Z,50.91894531
2022-09-22T10:58:13.319Z,50.89550781
2022-09-22T10:59:13.878Z,50.55273438
2022-09-22T11:00:09.529Z,50.8984375
2022-09-22T11:02:07.019Z,50.9296875
2022-09-22T11:03:09.316Z,51.765625
2022-09-22T11:04:02.528Z,50.05957031
2022-09-22T11:05:04.072Z,51.26367188
2022-09-22T11:06:58.077Z,50.32128906
2022-09-22T11:08:01.423Z,48.78417969
2022-09-22T11:08:54.516Z,49.35742188
2022-09-22T11:10:35.086Z,50.55273438
2022-09-22T11:12:12.141Z,50.13085938
2022-09-22T11:12:52.074Z,49.49316406
2022-09-22T11:13:49.515Z,48.27832031
2022-09-22T11:14:49.235Z,48.87402344
2022-09-22T11:15:44.467Z,49.3046875
2022-09-22T11:16:43.874Z,48.92480469
2022-09-22T11:17:39.085Z,49.02441406
2022-09-22T11:18:39.787Z,49.42285156
2022-09-22T11:19:33.300Z,49.46484375
2022-09-22T11:20:32.644Z,50.37695313
2022-09-22T11:21:27.230Z,50.54589844
2022-09-22T11:22:26.784Z,51.18359375
2022-09-22T11:23:21.481Z,51.22851563
2022-09-22T11:24:21.167Z,50.734375
2022-09-22T11:25:16.323Z,50.62792969
2022-09-22T11:27:10.331Z,50.63574219
2022-09-22T11:28:09.367Z,50.5078125
2022-09-22T11:29:04.600Z,50.45019531
2022-09-22T11:30:01.553Z,49.98925781
2022-09-22T11:31:55.375Z,51.20996094
2022-09-22T11:32:55.019Z,51.62988281
2022-09-22T11:33:49.473Z,52.00976563
2022-09-22T11:34:49.740Z,52.40917969
2022-09-22T11:35:44.231Z,52.16601563
2022-09-22T11:36:51.454Z,52.05175781
2022-09-22T11:37:44.794Z,51.59375
2022-09-22T11:38:37.149Z,49.83203125
2022-09-22T11:39:38.993Z,51.03613281
2022-09-22T11:40:32.869Z,50.51953125
2022-09-22T11:41:36.340Z,50.50878906
2022-09-22T11:42:28.889Z,50.40527344
2022-09-22T11:43:27.879Z,51.09082031
2022-09-22T11:44:22.358Z,51.39746094
2022-09-22T11:45:21.677Z,51.40625
2022-09-22T11:47:18.209Z,52.39648438
2022-09-22T11:48:10.369Z,52.7265625
2022-09-22T11:49:48.737Z,53.08496094
2022-09-22T11:50:29.116Z,53.26074219
2022-09-22T11:51:30.207Z,52.265625
2022-09-22T11:52:26.392Z,50.80078125
2022-09-22T11:53:26.786Z,50.39648438
2022-09-22T11:54:25.913Z,50.78515625
2022-09-22T11:55:21.743Z,50.54882813
2022-09-22T11:56:22.641Z,50.15820313
2022-09-22T11:57:18.957Z,50.10058594
2022-09-22T11:58:19.253Z,51.19726563
2022-09-22T11:59:15.491Z,51.61914063
2022-09-22T12:00:15.395Z,51.34277344
2022-09-22T12:01:13.385Z,51.7421875
2022-09-22T12:02:11.573Z,50.83886719
2022-09-22T12:03:07.248Z,51.05859375
2022-09-22T12:04:07.835Z,49.80957031
2022-09-22T12:05:04.071Z,49.78710938
2022-09-22T12:06:06.838Z,48.49121094
2022-09-22T12:07:00.186Z,49.06640625
2022-09-22T12:07:58.529Z,48.92871094
2022-09-22T12:08:59.118Z,49.43359375